Time;durP1;ratioP1;P1;durP2;ratioP2;P2;SDS_P1;SDS_P2;PMS_P1;PMS_P2;Temp;Humidity;BMP_temperature;BMP_pressure;BME280_temperature;BME280_humidity;BME280_pressure;Samples;Min_cycle;Max_cycle;Signal;HPM_P1;HPM_P2
2023/06/12 00:01:59;;;;;;;;;;;17.80;62.40;;;;;;6109993;23;19994;-86
2023/06/12 00:04:24;;;;;;;;;;;17.80;62.50;;;;;;6133276;23;19923;-90
2023/06/12 00:06:50;;;;;;;;;;;17.80;62.50;;;;;;6127644;23;19923;-86
2023/06/12 00:09:16;;;;;;;;;;;17.80;62.50;;;;;;6132860;23;19920;-86
2023/06/12 00:11:42;;;;;;;;;;;17.80;62.40;;;;;;6134064;23;20358;-87
2023/06/12 00:14:07;;;;;;;;;;;17.80;62.30;;;;;;6132931;23;20332;-86
2023/06/12 00:16:33;;;;;;;;;;;17.60;62.30;;;;;;6104840;23;19917;-90
2023/06/12 00:19:00;;;;;;;;;;;17.60;62.40;;;;;;6106624;23;20054;-86
2023/06/12 00:21:25;;;;;;;;;;;17.60;62.30;;;;;;6110478;23;20310;-86
2023/06/12 00:23:51;;;;;;;;;;;17.60;62.30;;;;;;6132520;23;19924;-87
2023/06/12 00:26:17;;;;;;;;;;;17.50;62.30;;;;;;6133453;23;20355;-90
2023/06/12 00:28:42;;;;;;;;;;;17.50;62.70;;;;;;6128193;23;19948;-86
2023/06/12 00:31:08;;;;;;;;;;;17.50;62.70;;;;;;6134321;23;19920;-86
2023/06/12 00:33:34;;;;;;;;;;;17.50;62.60;;;;;;6133055;23;19948;-86
2023/06/12 00:36:00;;;;;;;;;;;17.40;62.80;;;;;;6134035;23;19927;-86
2023/06/12 00:38:26;;;;;;;;;;;17.40;62.70;;;;;;6127178;23;19920;-86
2023/06/12 00:40:51;;;;;;;;;;;17.30;62.90;;;;;;6134391;23;19924;-88
2023/06/12 00:43:17;;;;;;;;;;;17.20;63.00;;;;;;6132305;23;19967;-86
2023/06/12 00:45:43;;;;;;;;;;;17.20;62.90;;;;;;6110177;23;19928;-86
2023/06/12 00:48:09;;;;;;;;;;;17.20;63.00;;;;;;6125607;23;19920;-89
2023/06/12 00:50:35;;;;;;;;;;;17.20;63.00;;;;;;6134314;23;19971;-86
2023/06/12 00:53:01;;;;;;;;;;;17.20;63.00;;;;;;6132614;23;19927;-87
2023/06/12 00:55:29;;;;;;;;;;;17.00;63.20;;;;;;6133972;23;19999;-86
2023/06/12 00:57:55;;;;;;;;;;;17.00;63.20;;;;;;6125131;23;19927;-86
2023/06/12 01:00:21;;;;;;;;;;;17.00;63.00;;;;;;6109746;23;19920;-86
2023/06/12 01:02:50;;;;;;;;;;;17.00;63.20;;;;;;6132284;23;20332;-87
2023/06/12 01:05:19;;;;;;;;;;;16.90;63.00;;;;;;6134208;23;19920;-86
2023/06/12 01:07:55;;;;;;;;;;;16.80;63.50;;;;;;6125059;23;19927;-86
2023/06/12 01:10:21;;;;;;;;;;;16.70;64.10;;;;;;6133888;23;19920;-86
2023/06/12 01:12:47;;;;;;;;;;;16.50;64.30;;;;;;6131758;23;19983;-86
2023/06/12 01:15:14;;;;;;;;;;;16.40;64.40;;;;;;6134318;23;19928;-86
2023/06/12 01:17:41;;;;;;;;;;;16.40;64.50;;;;;;6124561;23;19928;-87
2023/06/12 01:20:10;;;;;;;;;;;16.30;65.00;;;;;;6134136;23;19928;-86
2023/06/12 01:22:38;;;;;;;;;;;16.20;64.80;;;;;;6132111;23;19928;-87
2023/06/12 01:25:16;;;;;;;;;;;16.10;64.80;;;;;;6133761;23;19920;-87
2023/06/12 01:27:47;;;;;;;;;;;16.10;65.40;;;;;;6125083;23;19951;-89
2023/06/12 01:30:32;;;;;;;;;;;16.00;65.30;;;;;;6134266;23;19951;-86
2023/06/12 01:32:59;;;;;;;;;;;16.00;65.10;;;;;;6156953;23;19983;-87
2023/06/12 01:35:30;;;;;;;;;;;16.00;66.00;;;;;;6133801;23;19920;-86
2023/06/12 01:38:11;;;;;;;;;;;15.90;65.90;;;;;;6128011;23;20362;-87
2023/06/12 01:40:37;;;;;;;;;;;15.80;65.80;;;;;;6133997;23;19920;-86
2023/06/12 01:43:03;;;;;;;;;;;15.80;66.20;;;;;;6131942;23;20247;-88
2023/06/12 01:45:29;;;;;;;;;;;15.70;66.30;;;;;;6134120;23;19924;-88
2023/06/12 01:47:55;;;;;;;;;;;15.60;66.20;;;;;;6126431;23;20220;-86
2023/06/12 01:50:21;;;;;;;;;;;15.60;66.50;;;;;;6108969;23;20340;-87
2023/06/12 01:52:46;;;;;;;;;;;15.60;67.10;;;;;;6132151;23;19920;-86
2023/06/12 01:55:13;;;;;;;;;;;15.60;66.60;;;;;;6109434;23;19924;-86
2023/06/12 01:57:40;;;;;;;;;;;15.60;67.00;;;;;;6101247;23;19920;-86
2023/06/12 02:00:06;;;;;;;;;;;15.50;66.50;;;;;;6134117;23;19996;-86
2023/06/12 02:02:34;;;;;;;;;;;15.40;67.10;;;;;;6131475;23;19951;-86
2023/06/12 02:05:00;;;;;;;;;;;15.30;67.10;;;;;;6133954;23;20638;-87
2023/06/12 02:07:25;;;;;;;;;;;15.30;67.40;;;;;;6126311;23;19927;-86
2023/06/12 02:09:51;;;;;;;;;;;15.20;67.50;;;;;;6133400;23;20402;-86
2023/06/12 02:12:17;;;;;;;;;;;15.20;67.70;;;;;;6131245;23;19956;-86
2023/06/12 02:14:43;;;;;;;;;;;15.20;67.60;;;;;;6133867;23;19920;-86
2023/06/12 02:17:08;;;;;;;;;;;15.10;67.50;;;;;;6126138;23;19943;-86
2023/06/12 02:19:34;;;;;;;;;;;15.00;67.50;;;;;;6109571;23;19921;-87
2023/06/12 02:22:00;;;;;;;;;;;15.00;67.70;;;;;;6133499;23;19924;-87
2023/06/12 02:24:27;;;;;;;;;;;15.00;68.00;;;;;;6131651;23;19924;-87
2023/06/12 02:26:52;;;;;;;;;;;15.00;67.70;;;;;;6127205;23;19916;-87
2023/06/12 02:29:18;;;;;;;;;;;15.00;67.90;;;;;;6131419;23;20289;-86
2023/06/12 02:31:44;;;;;;;;;;;14.90;67.80;;;;;;6133835;23;19921;-87
2023/06/12 02:34:09;;;;;;;;;;;14.90;67.70;;;;;;6131824;23;20347;-87
2023/06/12 02:36:39;;;;;;;;;;;14.90;68.50;;;;;;6127587;23;19921;-89
2023/06/12 02:39:09;;;;;;;;;;;14.90;68.40;;;;;;6131896;23;19978;-87
2023/06/12 02:41:38;;;;;;;;;;;14.90;68.20;;;;;;6133512;23;19921;-86
2023/06/12 02:44:04;;;;;;;;;;;14.80;68.30;;;;;;6131347;23;19920;-87
2023/06/12 02:46:29;;;;;;;;;;;14.80;68.30;;;;;;6129185;23;20055;-91
2023/06/12 02:48:55;;;;;;;;;;;14.80;68.10;;;;;;6129016;23;19921;-86
2023/06/12 02:51:21;;;;;;;;;;;14.70;68.30;;;;;;6133254;23;19930;-87
2023/06/12 02:53:46;;;;;;;;;;;14.70;68.30;;;;;;6107760;23;19921;-87
2023/06/12 02:56:12;;;;;;;;;;;14.60;68.20;;;;;;6108651;23;19920;-90
2023/06/12 02:58:39;;;;;;;;;;;14.60;68.60;;;;;;6126496;23;19924;-86
2023/06/12 03:01:05;;;;;;;;;;;14.50;68.90;;;;;;6109320;23;19983;-87
2023/06/12 03:03:31;;;;;;;;;;;14.50;68.90;;;;;;6131540;23;19924;-87
2023/06/12 03:05:57;;;;;;;;;;;14.50;69.00;;;;;;6133758;23;20239;-86
2023/06/12 03:08:22;;;;;;;;;;;14.50;69.00;;;;;;6124174;23;19920;-87
2023/06/12 03:10:48;;;;;;;;;;;14.50;68.90;;;;;;6132889;23;19920;-87
2023/06/12 03:13:14;;;;;;;;;;;14.50;68.90;;;;;;6131199;23;19920;-86
2023/06/12 03:15:40;;;;;;;;;;;14.50;69.70;;;;;;6133237;23;20401;-86
2023/06/12 03:18:05;;;;;;;;;;;14.50;69.70;;;;;;6124267;23;20415;-87
2023/06/12 03:20:34;;;;;;;;;;;14.50;69.40;;;;;;6133141;23;20251;-88
2023/06/12 03:23:00;;;;;;;;;;;14.50;69.40;;;;;;6131739;23;19924;-87
2023/06/12 03:25:26;;;;;;;;;;;14.50;69.10;;;;;;6133643;23;20331;-88
2023/06/12 03:27:52;;;;;;;;;;;14.40;69.30;;;;;;6123169;23;19927;-87
2023/06/12 03:30:17;;;;;;;;;;;14.40;69.40;;;;;;6133239;23;19926;-86
2023/06/12 03:32:43;;;;;;;;;;;14.40;69.80;;;;;;6131813;23;19983;-86
2023/06/12 03:35:09;;;;;;;;;;;14.40;69.70;;;;;;6133525;23;20402;-87
2023/06/12 03:37:35;;;;;;;;;;;14.40;69.80;;;;;;6126261;23;19924;-86
2023/06/12 03:40:00;;;;;;;;;;;14.40;69.80;;;;;;6135089;23;19960;-87
2023/06/12 03:42:26;;;;;;;;;;;14.40;70.50;;;;;;6133100;23;19921;-86
2023/06/12 03:44:52;;;;;;;;;;;14.40;70.50;;;;;;6135167;23;19995;-87
2023/06/12 03:47:18;;;;;;;;;;;14.40;70.60;;;;;;6126042;23;19920;-86
2023/06/12 03:49:46;;;;;;;;;;;14.40;70.60;;;;;;6110648;23;20240;-86
2023/06/12 03:52:11;;;;;;;;;;;14.50;70.10;;;;;;6132729;23;19920;-87
2023/06/12 03:54:38;;;;;;;;;;;14.50;70.60;;;;;;6110839;23;19920;-86
2023/06/12 03:57:04;;;;;;;;;;;14.50;70.40;;;;;;6126186;23;19916;-87
2023/06/12 03:59:29;;;;;;;;;;;14.50;70.80;;;;;;6134376;23;19928;-87
2023/06/12 04:01:57;;;;;;;;;;;14.60;70.90;;;;;;6135028;23;19921;-87
2023/06/12 04:04:23;;;;;;;;;;;14.60;71.20;;;;;;6132746;23;19982;-88
2023/06/12 04:06:48;;;;;;;;;;;14.60;70.60;;;;;;6128743;23;19947;-89
2023/06/12 04:09:15;;;;;;;;;;;14.60;70.40;;;;;;6133252;23;19920;-86
2023/06/12 04:11:41;;;;;;;;;;;14.60;71.10;;;;;;6134372;23;19920;-86
2023/06/12 04:14:07;;;;;;;;;;;14.70;71.20;;;;;;6108839;23;19943;-88
2023/06/12 04:16:33;;;;;;;;;;;14.70;71.20;;;;;;6130924;23;19924;-88
2023/06/12 04:19:03;;;;;;;;;;;14.70;70.70;;;;;;6130870;23;20290;-87
2023/06/12 04:21:32;;;;;;;;;;;14.70;70.80;;;;;;6134804;23;19920;-86
2023/06/12 04:24:02;;;;;;;;;;;14.70;71.20;;;;;;6132935;23;19983;-87
2023/06/12 04:26:31;;;;;;;;;;;14.70;70.90;;;;;;6130044;23;19916;-88
2023/06/12 04:28:57;;;;;;;;;;;14.70;71.20;;;;;;6104789;23;19920;-87
2023/06/12 04:31:26;;;;;;;;;;;14.70;71.50;;;;;;6134518;23;19942;-87
2023/06/12 04:33:52;;;;;;;;;;;14.80;70.80;;;;;;6132572;23;19961;-89
2023/06/12 04:36:18;;;;;;;;;;;14.80;71.10;;;;;;6107175;23;19925;-89
2023/06/12 04:38:45;;;;;;;;;;;14.90;71.60;;;;;;6129532;23;20307;-87
2023/06/12 04:41:11;;;;;;;;;;;15.00;71.20;;;;;;6134130;23;19927;-87
2023/06/12 04:43:38;;;;;;;;;;;15.00;70.80;;;;;;6132937;23;19943;-86
2023/06/12 04:46:07;;;;;;;;;;;15.00;71.00;;;;;;6109687;23;20331;-90
2023/06/12 04:48:33;;;;;;;;;;;15.10;70.60;;;;;;6125500;23;20609;-85
2023/06/12 04:50:58;;;;;;;;;;;15.20;71.20;;;;;;6134420;23;19920;-89
2023/06/12 04:53:29;;;;;;;;;;;15.20;71.00;;;;;;6108079;23;19959;-87
2023/06/12 04:55:56;;;;;;;;;;;15.20;70.70;;;;;;6134631;23;20294;-86
2023/06/12 04:58:21;;;;;;;;;;;15.30;70.60;;;;;;6124763;23;19944;-87
2023/06/12 05:00:50;;;;;;;;;;;15.40;71.20;;;;;;6134295;23;19971;-86
2023/06/12 05:03:17;;;;;;;;;;;15.60;71.90;;;;;;6108376;23;19924;-87
2023/06/12 05:05:46;;;;;;;;;;;15.80;71.70;;;;;;6134376;23;19920;-87
2023/06/12 05:08:12;;;;;;;;;;;16.00;72.10;;;;;;6125035;23;19920;-86
2023/06/12 05:10:40;;;;;;;;;;;16.40;71.80;;;;;;6134521;23;19974;-87
2023/06/12 05:13:06;;;;;;;;;;;16.60;71.00;;;;;;6131880;23;19920;-87
2023/06/12 05:15:32;;;;;;;;;;;16.90;71.00;;;;;;6134018;23;19932;-86
2023/06/12 05:17:58;;;;;;;;;;;17.10;70.70;;;;;;6124915;23;19920;-87
2023/06/12 05:20:24;;;;;;;;;;;17.40;70.00;;;;;;6134472;23;19920;-86
2023/06/12 05:22:50;;;;;;;;;;;17.50;69.40;;;;;;6132027;23;19924;-86
2023/06/12 05:25:16;;;;;;;;;;;17.60;69.00;;;;;;6110346;23;19924;-87
2023/06/12 05:27:41;;;;;;;;;;;17.80;68.70;;;;;;6125862;23;19920;-86
2023/06/12 05:30:07;;;;;;;;;;;18.00;68.90;;;;;;6133576;23;19984;-89
2023/06/12 05:32:34;;;;;;;;;;;18.30;68.10;;;;;;6132175;23;19946;-89
2023/06/12 05:35:00;;;;;;;;;;;18.40;67.70;;;;;;6133926;23;19924;-87
2023/06/12 05:37:25;;;;;;;;;;;18.60;67.50;;;;;;6126336;23;19935;-86
2023/06/12 05:39:52;;;;;;;;;;;18.80;67.40;;;;;;6133942;23;19931;-88
2023/06/12 05:42:18;;;;;;;;;;;19.00;67.00;;;;;;6132018;23;19925;-87
2023/06/12 05:44:46;;;;;;;;;;;19.00;66.60;;;;;;6134025;23;19967;-87
2023/06/12 05:47:12;;;;;;;;;;;19.00;66.60;;;;;;6124853;23;19987;-87
2023/06/12 05:49:38;;;;;;;;;;;18.90;67.30;;;;;;6133860;23;19920;-88
2023/06/12 05:52:07;;;;;;;;;;;18.90;67.20;;;;;;6131754;23;20024;-88
2023/06/12 05:54:34;;;;;;;;;;;18.90;67.00;;;;;;6133726;23;19924;-88
2023/06/12 05:57:00;;;;;;;;;;;18.90;67.00;;;;;;6126738;23;20347;-87
2023/06/12 05:59:26;;;;;;;;;;;18.80;67.50;;;;;;6131492;23;19924;-89
2023/06/12 06:01:52;;;;;;;;;;;18.80;67.20;;;;;;6133505;23;19920;-86
2023/06/12 06:04:17;;;;;;;;;;;18.90;67.80;;;;;;6156766;23;19920;-87
2023/06/12 06:06:43;;;;;;;;;;;18.90;67.20;;;;;;6127286;23;19971;-89
2023/06/12 06:09:09;;;;;;;;;;;18.90;67.60;;;;;;6130849;23;19927;-86
2023/06/12 06:11:34;;;;;;;;;;;18.90;68.00;;;;;;6132951;23;19920;-87
2023/06/12 06:14:00;;;;;;;;;;;19.00;67.50;;;;;;6132069;23;19959;-86
2023/06/12 06:16:26;;;;;;;;;;;18.90;67.20;;;;;;6105004;23;19923;-90
2023/06/12 06:18:52;;;;;;;;;;;19.00;67.90;;;;;;6128219;23;19920;-88
2023/06/12 06:21:18;;;;;;;;;;;19.10;67.30;;;;;;6133978;23;19920;-88
2023/06/12 06:23:43;;;;;;;;;;;19.10;67.90;;;;;;6131474;23;19920;-87
2023/06/12 06:26:09;;;;;;;;;;;19.20;67.70;;;;;;6132984;23;19931;-90
2023/06/12 06:28:36;;;;;;;;;;;19.30;66.90;;;;;;6125418;23;19920;-87
2023/06/12 06:31:03;;;;;;;;;;;19.40;68.00;;;;;;6132816;23;19927;-87
2023/06/12 06:33:29;;;;;;;;;;;19.40;67.30;;;;;;6131451;23;20251;-88
2023/06/12 06:35:55;;;;;;;;;;;19.50;67.50;;;;;;6133838;23;20220;-88
2023/06/12 06:38:22;;;;;;;;;;;19.50;66.80;;;;;;6126312;23;19971;-87
2023/06/12 06:40:48;;;;;;;;;;;19.50;67.30;;;;;;6133691;23;19943;-87
2023/06/12 06:43:13;;;;;;;;;;;19.50;67.80;;;;;;6131546;23;19924;-87
2023/06/12 06:45:39;;;;;;;;;;;19.60;67.30;;;;;;6133994;23;20024;-88
2023/06/12 06:48:05;;;;;;;;;;;19.60;67.20;;;;;;6124194;23;19966;-88
2023/06/12 06:50:31;;;;;;;;;;;19.60;66.90;;;;;;6132930;23;20142;-87
2023/06/12 06:52:56;;;;;;;;;;;19.50;68.10;;;;;;6131602;23;20338;-87
2023/06/12 06:55:25;;;;;;;;;;;19.70;68.00;;;;;;6133634;23;19924;-88
2023/06/12 06:57:50;;;;;;;;;;;19.70;68.00;;;;;;6099592;23;19920;-88
2023/06/12 07:00:16;;;;;;;;;;;19.70;67.20;;;;;;6109557;23;19966;-89
2023/06/12 07:02:45;;;;;;;;;;;19.70;67.60;;;;;;6131441;23;19920;-87
2023/06/12 07:05:14;;;;;;;;;;;19.70;67.20;;;;;;6133809;23;20235;-87
2023/06/12 07:07:40;;;;;;;;;;;19.70;67.60;;;;;;6124099;23;20025;-87
2023/06/12 07:10:07;;;;;;;;;;;19.70;68.10;;;;;;6133559;23;19991;-88
2023/06/12 07:12:33;;;;;;;;;;;19.80;67.60;;;;;;6132246;23;20354;-90
2023/06/12 07:14:59;;;;;;;;;;;19.90;67.90;;;;;;6110893;23;20337;-89
2023/06/12 07:17:25;;;;;;;;;;;20.00;67.90;;;;;;6101456;23;19920;-88
2023/06/12 07:19:50;;;;;;;;;;;20.10;67.10;;;;;;6110771;23;20293;-89
2023/06/12 07:22:16;;;;;;;;;;;20.10;67.50;;;;;;6116228;23;19999;-87
2023/06/12 07:24:45;;;;;;;;;;;20.10;67.50;;;;;;6089750;23;19921;-91
2023/06/12 07:27:11;;;;;;;;;;;20.20;67.10;;;;;;6125730;23;20346;-89
2023/06/12 07:29:37;;;;;;;;;;;20.30;67.30;;;;;;6134969;23;19920;-88
2023/06/12 07:32:05;;;;;;;;;;;20.30;67.50;;;;;;6132746;23;19999;-89
2023/06/12 07:34:31;;;;;;;;;;;20.30;67.50;;;;;;6135383;23;19924;-87
2023/06/12 07:36:58;;;;;;;;;;;20.40;67.30;;;;;;6127858;23;19927;-88
2023/06/12 07:39:24;;;;;;;;;;;20.50;66.80;;;;;;6134864;23;19927;-88
2023/06/12 07:41:50;;;;;;;;;;;20.50;66.60;;;;;;6135085;23;19982;-87
2023/06/12 07:44:18;;;;;;;;;;;20.50;67.10;;;;;;6132962;23;19987;-87
2023/06/12 07:46:47;;;;;;;;;;;20.50;66.90;;;;;;6105631;23;20522;-90
2023/06/12 07:49:14;;;;;;;;;;;20.60;67.10;;;;;;6107689;23;19921;-88
2023/06/12 07:51:40;;;;;;;;;;;20.70;67.00;;;;;;6111401;23;19924;-88
2023/06/12 07:54:05;;;;;;;;;;;20.80;66.90;;;;;;6069910;23;20288;-89
2023/06/12 07:56:32;;;;;;;;;;;20.80;66.60;;;;;;6106190;23;20369;-91
2023/06/12 07:59:09;;;;;;;;;;;20.80;66.20;;;;;;6130907;23;19936;-90
2023/06/12 08:01:36;;;;;;;;;;;20.90;66.10;;;;;;6110193;23;19924;-89
2023/06/12 08:04:03;;;;;;;;;;;20.90;65.60;;;;;;6094722;23;19928;-88
2023/06/12 08:06:33;;;;;;;;;;;20.90;65.80;;;;;;6130396;23;19916;-89
2023/06/12 08:08:58;;;;;;;;;;;21.00;65.90;;;;;;6131110;23;19943;-89
2023/06/12 08:11:24;;;;;;;;;;;21.00;66.60;;;;;;6110148;23;19920;-88
2023/06/12 08:13:53;;;;;;;;;;;21.10;66.20;;;;;;6107808;23;19935;-88
2023/06/12 08:16:20;;;;;;;;;;;21.10;66.40;;;;;;6131984;23;19978;-91
2023/06/12 08:18:46;;;;;;;;;;;21.30;65.40;;;;;;6128442;23;19920;-88
2023/06/12 08:21:12;;;;;;;;;;;21.40;65.70;;;;;;6134958;23;19928;-88
2023/06/12 08:23:37;;;;;;;;;;;21.40;65.80;;;;;;6132462;23;19921;-87
2023/06/12 08:26:09;;;;;;;;;;;21.40;65.50;;;;;;6134934;23;19991;-89
2023/06/12 08:28:37;;;;;;;;;;;21.50;65.40;;;;;;6094683;23;19927;-87
2023/06/12 08:31:03;;;;;;;;;;;21.50;64.90;;;;;;6105613;23;19936;-89
2023/06/12 08:33:29;;;;;;;;;;;21.50;63.90;;;;;;6132867;23;19920;-87
2023/06/12 08:35:55;;;;;;;;;;;21.50;64.10;;;;;;6110458;23;19920;-88
2023/06/12 08:38:21;;;;;;;;;;;21.50;64.00;;;;;;6127319;23;20467;-86
2023/06/12 08:40:46;;;;;;;;;;;21.60;64.00;;;;;;6110214;23;19920;-88
2023/06/12 08:43:12;;;;;;;;;;;21.70;63.40;;;;;;6132347;23;19920;-87
2023/06/12 08:45:45;;;;;;;;;;;21.70;63.30;;;;;;6134757;23;20009;-88
2023/06/12 08:48:12;;;;;;;;;;;21.70;64.30;;;;;;6125001;23;19928;-86
2023/06/12 08:50:38;;;;;;;;;;;21.90;64.00;;;;;;6133866;23;19924;-87
2023/06/12 08:53:04;;;;;;;;;;;21.90;63.30;;;;;;6132960;23;19975;-88
2023/06/12 08:55:32;;;;;;;;;;;21.90;62.90;;;;;;6134303;23;19928;-86
2023/06/12 08:57:58;;;;;;;;;;;22.00;62.50;;;;;;6126887;23;20016;-88
2023/06/12 09:00:24;;;;;;;;;;;22.00;62.90;;;;;;6133852;23;19927;-88
2023/06/12 09:02:54;;;;;;;;;;;22.00;62.10;;;;;;6132111;23;19924;-88
2023/06/12 09:05:23;;;;;;;;;;;22.10;62.00;;;;;;6134338;23;19930;-87
2023/06/12 09:07:50;;;;;;;;;;;22.20;61.40;;;;;;6124711;23;19924;-87
2023/06/12 09:10:16;;;;;;;;;;;22.20;61.30;;;;;;6133739;23;19982;-87
2023/06/12 09:12:43;;;;;;;;;;;22.30;61.50;;;;;;6132260;23;19920;-88
2023/06/12 09:15:09;;;;;;;;;;;22.40;61.50;;;;;;6109403;23;19947;-88
2023/06/12 09:17:37;;;;;;;;;;;22.50;61.40;;;;;;6124284;23;19928;-88
2023/06/12 09:20:04;;;;;;;;;;;22.50;61.60;;;;;;6133645;23;19920;-89
2023/06/12 09:22:30;;;;;;;;;;;22.60;61.20;;;;;;6131963;23;19920;-89
2023/06/12 09:24:57;;;;;;;;;;;22.60;60.60;;;;;;6133692;23;20004;-87
2023/06/12 09:27:22;;;;;;;;;;;22.70;60.80;;;;;;6125892;23;19928;-87
2023/06/12 09:29:48;;;;;;;;;;;22.70;60.90;;;;;;6133445;23;19928;-87
2023/06/12 09:32:14;;;;;;;;;;;22.80;62.00;;;;;;6107608;23;19927;-87
2023/06/12 09:34:44;;;;;;;;;;;22.80;60.80;;;;;;6133907;23;19925;-88
2023/06/12 09:37:12;;;;;;;;;;;22.90;59.90;;;;;;6126322;23;19979;-86
2023/06/12 09:39:38;;;;;;;;;;;22.90;59.60;;;;;;6133529;23;19932;-88
2023/06/12 09:42:04;;;;;;;;;;;22.90;59.10;;;;;;6131098;23;19921;-87
2023/06/12 09:44:30;;;;;;;;;;;22.90;59.40;;;;;;6133755;23;19951;-88
2023/06/12 09:47:01;;;;;;;;;;;22.90;60.10;;;;;;6127118;23;19927;-87
2023/06/12 09:49:26;;;;;;;;;;;23.00;59.80;;;;;;6131494;23;19983;-88
2023/06/12 09:51:54;;;;;;;;;;;23.10;59.90;;;;;;6133192;23;19978;-88
2023/06/12 09:54:21;;;;;;;;;;;23.10;60.00;;;;;;6131815;23;19927;-87
2023/06/12 09:56:47;;;;;;;;;;;23.20;59.70;;;;;;6127255;23;19916;-90
2023/06/12 09:59:17;;;;;;;;;;;23.30;60.00;;;;;;6131396;23;19935;-88
2023/06/12 10:01:46;;;;;;;;;;;23.30;59.30;;;;;;6133414;23;19921;-87
2023/06/12 10:04:13;;;;;;;;;;;23.30;59.90;;;;;;6131603;23;19921;-88
2023/06/12 10:06:38;;;;;;;;;;;23.30;59.20;;;;;;6127451;23;19916;-87
2023/06/12 10:09:06;;;;;;;;;;;23.30;59.60;;;;;;6130383;23;20346;-88
2023/06/12 10:11:32;;;;;;;;;;;23.30;59.70;;;;;;6108946;23;20033;-87
2023/06/12 10:14:01;;;;;;;;;;;23.30;59.70;;;;;;6131572;23;19927;-88
2023/06/12 10:16:27;;;;;;;;;;;23.30;59.50;;;;;;6129153;23;19916;-90
2023/06/12 10:18:53;;;;;;;;;;;23.40;60.10;;;;;;6126859;23;19999;-87
2023/06/12 10:21:21;;;;;;;;;;;23.40;59.80;;;;;;6133129;23;23117;-88
2023/06/12 10:23:47;;;;;;;;;;;23.50;59.00;;;;;;6131645;23;19924;-87
2023/06/12 10:26:14;;;;;;;;;;;23.50;58.90;;;;;;6107443;23;20318;-89
2023/06/12 10:28:40;;;;;;;;;;;23.60;59.60;;;;;;6126704;23;19931;-88
2023/06/12 10:31:18;;;;;;;;;;;23.70;59.00;;;;;;6108792;23;19920;-89
2023/06/12 10:33:58;;;;;;;;;;;23.80;59.70;;;;;;6131620;23;20286;-90
2023/06/12 10:36:23;;;;;;;;;;;23.90;58.30;;;;;;6129872;23;19927;-91
2023/06/12 10:38:51;;;;;;;;;;;24.00;57.50;;;;;;6105737;23;19994;-89
2023/06/12 10:41:30;;;;;;;;;;;24.00;57.80;;;;;;6109010;23;19955;-88
2023/06/12 10:43:56;;;;;;;;;;;24.00;57.80;;;;;;6131510;23;19920;-88
2023/06/12 10:46:21;;;;;;;;;;;24.00;57.50;;;;;;6106693;23;19927;-89
2023/06/12 10:48:47;;;;;;;;;;;24.10;57.60;;;;;;6129374;23;19927;-87
2023/06/12 10:51:13;;;;;;;;;;;24.20;58.30;;;;;;6134839;23;19928;-88
2023/06/12 10:53:44;;;;;;;;;;;24.20;58.30;;;;;;6133603;23;19931;-88
2023/06/12 10:56:16;;;;;;;;;;;24.20;57.90;;;;;;6134384;23;20401;-91
2023/06/12 10:58:41;;;;;;;;;;;24.20;57.40;;;;;;6127763;23;19955;-88
2023/06/12 11:01:08;;;;;;;;;;;24.20;57.20;;;;;;6111131;23;19921;-87
2023/06/12 11:03:37;;;;;;;;;;;24.30;57.80;;;;;;6133326;23;19920;-88
2023/06/12 11:06:12;;;;;;;;;;;24.40;56.10;;;;;;6135575;23;19932;-84
2023/06/12 11:08:42;;;;;;;;;;;24.40;56.50;;;;;;6151926;23;19920;-84
2023/06/12 11:11:08;;;;;;;;;;;24.40;56.90;;;;;;6154977;23;19924;-83
2023/06/12 11:13:36;;;;;;;;;;;24.50;57.10;;;;;;6129405;23;19928;-84
2023/06/12 11:16:02;;;;;;;;;;;24.50;57.60;;;;;;6106900;23;19924;-83
2023/06/12 11:18:27;;;;;;;;;;;24.60;56.80;;;;;;6122601;23;19924;-83
2023/06/12 11:20:54;;;;;;;;;;;24.60;56.60;;;;;;6155426;23;19991;-83
2023/06/12 11:23:30;;;;;;;;;;;24.70;57.10;;;;;;6154166;23;19935;-83
2023/06/12 11:25:56;;;;;;;;;;;24.70;56.70;;;;;;6155214;23;19927;-83
2023/06/12 11:28:26;;;;;;;;;;;24.70;56.40;;;;;;6122211;23;19920;-83
2023/06/12 11:30:52;;;;;;;;;;;24.80;56.90;;;;;;6131002;23;19928;-83
2023/06/12 11:33:17;;;;;;;;;;;25.00;55.80;;;;;;6130104;23;19924;-83
2023/06/12 11:35:44;;;;;;;;;;;25.00;55.30;;;;;;6131133;23;19924;-83
2023/06/12 11:38:14;;;;;;;;;;;25.00;56.10;;;;;;6147723;23;20027;-83
2023/06/12 11:40:40;;;;;;;;;;;25.10;56.80;;;;;;6155159;23;20015;-83
2023/06/12 11:43:07;;;;;;;;;;;25.10;54.80;;;;;;6129396;23;19928;-83
2023/06/12 11:45:33;;;;;;;;;;;25.20;56.40;;;;;;6131401;23;19994;-83
2023/06/12 11:48:01;;;;;;;;;;;25.30;55.30;;;;;;6124578;23;20291;-84
2023/06/12 11:50:27;;;;;;;;;;;25.40;55.70;;;;;;6130304;23;19920;-83
2023/06/12 11:52:53;;;;;;;;;;;25.40;55.80;;;;;;6154079;23;19931;-83
2023/06/12 11:55:21;;;;;;;;;;;25.40;55.20;;;;;;6130416;23;19924;-84
2023/06/12 11:57:48;;;;;;;;;;;25.50;55.40;;;;;;6121626;23;20328;-83
2023/06/12 12:00:21;;;;;;;;;;;25.60;54.30;;;;;;6155080;23;19921;-83
2023/06/12 12:02:51;;;;;;;;;;;25.60;54.40;;;;;;6153144;23;19924;-82
2023/06/12 12:05:18;;;;;;;;;;;25.60;54.70;;;;;;6154905;23;19924;-83
2023/06/12 12:07:48;;;;;;;;;;;25.70;54.70;;;;;;6146380;23;20631;-83
2023/06/12 12:10:14;;;;;;;;;;;25.70;54.30;;;;;;6154885;23;19928;-83
2023/06/12 12:12:44;;;;;;;;;;;25.80;54.40;;;;;;6128781;23;19928;-82
2023/06/12 12:15:11;;;;;;;;;;;25.80;54.10;;;;;;6155289;23;19935;-82
2023/06/12 12:17:40;;;;;;;;;;;25.90;54.00;;;;;;6120726;23;20336;-83
2023/06/12 12:20:10;;;;;;;;;;;26.00;53.90;;;;;;6155237;23;19932;-83
2023/06/12 12:22:39;;;;;;;;;;;26.00;54.20;;;;;;6153882;23;19924;-82
2023/06/12 12:25:06;;;;;;;;;;;26.00;53.20;;;;;;6129990;23;19943;-83
2023/06/12 12:27:33;;;;;;;;;;;26.00;53.60;;;;;;6122102;23;19924;-83
2023/06/12 12:29:59;;;;;;;;;;;26.00;54.20;;;;;;6130358;23;19990;-84
2023/06/12 12:32:25;;;;;;;;;;;26.00;52.70;;;;;;6129332;23;19924;-86
2023/06/12 12:34:51;;;;;;;;;;;26.20;52.60;;;;;;6154710;23;19920;-84
2023/06/12 12:37:16;;;;;;;;;;;26.30;51.50;;;;;;6147680;23;19974;-84
2023/06/12 12:39:42;;;;;;;;;;;26.30;51.80;;;;;;6155273;23;19927;-85
2023/06/12 12:42:07;;;;;;;;;;;26.40;51.20;;;;;;6153283;23;19921;-85
2023/06/12 12:44:33;;;;;;;;;;;26.40;50.70;;;;;;6130902;23;20329;-86
2023/06/12 12:46:59;;;;;;;;;;;26.40;52.40;;;;;;6147914;23;20621;-87
2023/06/12 12:49:24;;;;;;;;;;;26.40;51.50;;;;;;6153266;23;20365;-85
2023/06/12 12:51:50;;;;;;;;;;;26.40;52.80;;;;;;6156833;23;19928;-85
2023/06/12 12:54:16;;;;;;;;;;;26.40;53.10;;;;;;6128521;23;20042;-86
2023/06/12 12:56:42;;;;;;;;;;;26.50;53.70;;;;;;6149379;23;20441;-86
2023/06/12 12:59:07;;;;;;;;;;;26.50;53.00;;;;;;6126662;23;19924;-85
2023/06/12 13:01:33;;;;;;;;;;;26.60;52.90;;;;;;6153451;23;19978;-85
2023/06/12 13:03:59;;;;;;;;;;;26.60;51.90;;;;;;6153793;23;19924;-85
2023/06/12 13:06:26;;;;;;;;;;;26.60;53.30;;;;;;6150876;23;20510;-85
2023/06/12 13:08:51;;;;;;;;;;;26.60;52.00;;;;;;6150162;23;19927;-85
2023/06/12 13:11:17;;;;;;;;;;;26.50;52.60;;;;;;6154217;23;19921;-85
2023/06/12 13:13:43;;;;;;;;;;;26.40;53.10;;;;;;6152376;23;19924;-85
2023/06/12 13:16:08;;;;;;;;;;;26.40;54.20;;;;;;6153697;23;20252;-85
2023/06/12 13:18:34;;;;;;;;;;;26.50;52.40;;;;;;6146602;23;20378;-85
2023/06/12 13:21:01;;;;;;;;;;;26.50;51.70;;;;;;6154859;23;19931;-85
2023/06/12 13:23:27;;;;;;;;;;;26.60;52.90;;;;;;6153111;23;19928;-85
2023/06/12 13:25:53;;;;;;;;;;;26.60;51.70;;;;;;6180990;23;19932;-85
2023/06/12 13:28:21;;;;;;;;;;;26.70;52.80;;;;;;6146595;23;19966;-85
2023/06/12 13:30:46;;;;;;;;;;;26.70;53.20;;;;;;6129476;23;20419;-85
2023/06/12 13:33:12;;;;;;;;;;;26.70;52.90;;;;;;6153509;23;19920;-86
2023/06/12 13:35:38;;;;;;;;;;;26.70;53.90;;;;;;6154326;23;19931;-85
2023/06/12 13:38:03;;;;;;;;;;;26.70;52.60;;;;;;6122697;23;19920;-84
2023/06/12 13:40:30;;;;;;;;;;;26.80;52.30;;;;;;6129143;23;19926;-88
2023/06/12 13:42:55;;;;;;;;;;;26.80;52.50;;;;;;6128625;23;19920;-85
2023/06/12 13:45:21;;;;;;;;;;;26.90;52.80;;;;;;6129957;23;20045;-85
2023/06/12 13:47:47;;;;;;;;;;;26.90;52.40;;;;;;6146127;23;19921;-85
2023/06/12 13:50:12;;;;;;;;;;;26.90;52.80;;;;;;6153860;23;19930;-86
2023/06/12 13:52:41;;;;;;;;;;;26.80;52.60;;;;;;6152855;23;20340;-85
2023/06/12 13:55:07;;;;;;;;;;;26.70;52.70;;;;;;6154421;23;19925;-85
2023/06/12 13:57:33;;;;;;;;;;;26.80;53.20;;;;;;6145957;23;19927;-86
2023/06/12 13:59:58;;;;;;;;;;;26.80;53.40;;;;;;6153738;23;19931;-87
2023/06/12 14:02:24;;;;;;;;;;;26.90;52.30;;;;;;6152698;23;19955;-86
2023/06/12 14:04:51;;;;;;;;;;;26.90;52.20;;;;;;6129485;23;19931;-86
2023/06/12 14:07:17;;;;;;;;;;;27.00;52.30;;;;;;6144841;23;19930;-85
2023/06/12 14:09:43;;;;;;;;;;;27.00;51.50;;;;;;6180608;23;19952;-85
2023/06/12 14:12:09;;;;;;;;;;;27.00;51.70;;;;;;6126056;23;19924;-89
2023/06/12 14:14:34;;;;;;;;;;;27.10;51.60;;;;;;6129837;23;20255;-86